createdAt,value
2018-06-01T00:01:40.530Z,7.78
2018-06-01T00:04:08.705Z,7.87
2018-06-01T00:06:36.571Z,7.90
2018-06-01T00:09:04.336Z,7.70
2018-06-01T00:11:32.811Z,7.53
2018-06-01T00:14:02.864Z,7.82
2018-06-01T00:20:07.174Z,7.20
2018-06-01T00:22:34.942Z,7.97
2018-06-01T00:25:02.732Z,7.95
2018-06-01T00:27:31.284Z,7.95
2018-06-01T00:29:59.057Z,8.25
2018-06-01T00:32:26.702Z,8.50
2018-06-01T00:34:54.483Z,8.20
2018-06-01T00:37:22.234Z,8.38
2018-06-01T00:39:50.418Z,7.97
2018-06-01T00:42:18.594Z,7.95
2018-06-01T00:44:46.463Z,7.97
2018-06-01T00:47:14.625Z,8.77
2018-06-01T00:49:42.480Z,8.65
2018-06-01T00:52:10.250Z,9.27
2018-06-01T00:54:50.708Z,10.40
2018-06-01T00:57:18.670Z,17.00
2018-06-01T00:59:46.331Z,15.57
2018-06-01T01:02:15.036Z,28.87
2018-06-01T01:04:42.895Z,13.32
2018-06-01T01:07:10.686Z,14.15
2018-06-01T01:09:38.521Z,17.77
2018-06-01T01:12:06.297Z,14.98
2018-06-01T01:14:34.560Z,19.58
2018-06-01T01:17:03.165Z,79.87
2018-06-01T01:19:32.454Z,29.33
2018-06-01T01:22:00.604Z,20.62
2018-06-01T01:24:28.486Z,13.82
2018-06-01T01:26:56.245Z,11.85
2018-06-01T01:29:24.520Z,11.73
2018-06-01T01:31:52.289Z,10.50
2018-06-01T01:34:20.874Z,9.70
2018-06-01T01:36:48.637Z,10.80
2018-06-01T01:39:16.494Z,10.63
2018-06-01T01:41:44.270Z,8.68
2018-06-01T01:44:12.434Z,9.80
2018-06-01T01:46:40.710Z,9.75
2018-06-01T01:49:08.574Z,10.55
2018-06-01T01:51:36.344Z,9.98
2018-06-01T01:54:04.528Z,10.40
2018-06-01T01:56:32.373Z,9.88
2018-06-01T01:59:00.552Z,9.75
2018-06-01T02:01:29.140Z,9.90
2018-06-01T02:03:57.001Z,9.05
2018-06-01T02:06:24.770Z,9.65
2018-06-01T02:08:52.531Z,9.77
2018-06-01T02:11:20.289Z,9.43
2018-06-01T02:13:48.469Z,9.15
2018-06-01T02:16:16.641Z,9.38
2018-06-01T02:18:44.286Z,9.60
2018-06-01T02:21:12.367Z,9.00
2018-06-01T02:23:40.538Z,9.00
2018-06-01T02:26:08.304Z,9.38
2018-06-01T02:28:36.589Z,9.55
2018-06-01T02:31:04.350Z,9.07
2018-06-01T02:33:32.511Z,9.13
2018-06-01T02:36:00.171Z,8.85
2018-06-01T02:38:28.766Z,8.80
2018-06-01T02:40:56.526Z,8.98
2018-06-01T02:43:25.014Z,8.85
2018-06-01T02:45:52.775Z,9.55
2018-06-01T02:48:20.526Z,9.27
2018-06-01T02:50:48.316Z,9.95
2018-06-01T02:53:16.475Z,9.85
2018-06-01T02:55:44.522Z,8.90
2018-06-01T02:58:12.599Z,8.98
2018-06-01T03:00:40.473Z,9.98
2018-06-01T03:03:08.679Z,9.48
2018-06-01T03:05:36.616Z,10.38
2018-06-01T03:08:04.447Z,9.40
2018-06-01T03:10:32.656Z,9.60
2018-06-01T03:13:00.309Z,9.15
2018-06-01T03:15:28.486Z,8.52
2018-06-01T03:17:56.670Z,9.55
2018-06-01T03:20:24.316Z,9.63
2018-06-01T03:22:52.487Z,9.52
2018-06-01T03:25:20.560Z,9.60
2018-06-01T03:27:48.222Z,9.15
2018-06-01T03:30:17.535Z,10.90
2018-06-01T03:32:45.295Z,9.70
2018-06-01T03:35:13.052Z,9.77
2018-06-01T03:37:40.915Z,9.23
2018-06-01T03:40:08.681Z,9.13
2018-06-01T03:42:36.456Z,11.30
2018-06-01T03:45:04.629Z,12.57
2018-06-01T03:47:32.486Z,10.80
2018-06-01T03:50:00.681Z,10.50
2018-06-01T03:52:28.531Z,11.23
2018-06-01T03:54:56.300Z,10.48
2018-06-01T03:57:24.350Z,9.50
2018-06-01T03:59:53.363Z,9.40
2018-06-01T04:02:21.123Z,9.82
2018-06-01T04:04:50.412Z,9.70
2018-06-01T04:07:18.694Z,9.60
2018-06-01T04:09:46.346Z,9.75
2018-06-01T04:12:14.421Z,9.27
2018-06-01T04:14:43.010Z,9.65
2018-06-01T04:17:10.767Z,9.55
2018-06-01T04:19:38.945Z,8.65
2018-06-01T04:22:06.908Z,9.25
2018-06-01T04:24:34.585Z,9.95
2018-06-01T04:27:02.445Z,9.95
2018-06-01T04:29:30.609Z,10.00
2018-06-01T04:31:58.258Z,9.95
2018-06-01T04:34:26.453Z,9.60
2018-06-01T04:36:54.723Z,9.50
2018-06-01T04:39:22.485Z,9.40
2018-06-01T04:41:50.546Z,9.52
2018-06-01T04:44:18.320Z,10.02
2018-06-01T04:46:46.499Z,9.52
2018-06-01T04:49:14.738Z,10.07
2018-06-01T04:51:43.151Z,10.00
2018-06-01T04:54:10.805Z,10.00
2018-06-01T04:56:38.569Z,10.00
2018-06-01T04:59:06.432Z,10.70
2018-06-01T05:01:34.607Z,11.07
2018-06-01T05:04:02.514Z,11.43
2018-06-01T05:06:30.738Z,11.73
2018-06-01T05:08:58.616Z,12.07
2018-06-01T05:11:26.263Z,11.57
2018-06-01T05:13:54.551Z,10.73
2018-06-01T05:16:22.199Z,11.85
2018-06-01T05:18:50.686Z,11.23
2018-06-01T05:21:19.376Z,11.70
2018-06-01T05:23:48.503Z,11.12
2018-06-01T05:26:16.637Z,12.40
2018-06-01T05:28:44.413Z,11.63
2018-06-01T05:31:12.468Z,11.80
2018-06-01T05:33:41.476Z,11.75
2018-06-01T05:36:09.237Z,12.40
2018-06-01T05:38:37.015Z,12.52
2018-06-01T05:41:05.673Z,12.23
2018-06-01T05:43:33.472Z,11.65
2018-06-01T05:46:01.103Z,12.77
2018-06-01T05:48:28.877Z,13.23
2018-06-01T05:50:57.054Z,12.20
2018-06-01T05:53:24.666Z,12.73
2018-06-01T05:55:52.361Z,12.43
2018-06-01T05:58:20.551Z,12.32
2018-06-01T06:00:48.606Z,12.68
2018-06-01T06:03:16.365Z,12.65
2018-06-01T06:05:44.650Z,13.30
2018-06-01T06:08:12.514Z,13.43
2018-06-01T06:10:41.622Z,13.05
2018-06-01T06:13:09.479Z,13.38
2018-06-01T06:15:37.346Z,12.80
2018-06-01T06:18:05.207Z,12.63
2018-06-01T06:20:32.961Z,12.63
2018-06-01T06:23:00.771Z,12.25
2018-06-01T06:25:28.706Z,12.57
2018-06-01T06:27:56.661Z,12.77
2018-06-01T06:30:24.447Z,12.82
2018-06-01T06:32:52.501Z,12.75
2018-06-01T06:35:20.678Z,12.25
2018-06-01T06:37:49.467Z,12.32
2018-06-01T06:40:17.114Z,12.85
2018-06-01T06:42:44.968Z,11.73
2018-06-01T06:45:12.642Z,12.25
2018-06-01T06:47:40.831Z,11.90
2018-06-01T06:50:08.712Z,12.68
2018-06-01T06:52:36.486Z,12.55
2018-06-01T06:55:04.630Z,12.82
2018-06-01T06:57:32.495Z,13.35
2018-06-01T07:00:00.557Z,12.13
2018-06-01T07:02:28.434Z,12.07
2018-06-01T07:04:56.698Z,11.75
2018-06-01T07:07:25.493Z,12.52
2018-06-01T07:09:53.141Z,12.27
2018-06-01T07:12:21.501Z,11.80
2018-06-01T07:14:49.105Z,11.50
2018-06-01T07:17:18.397Z,13.85
2018-06-01T07:19:46.569Z,12.43
2018-06-01T07:22:14.865Z,12.02
2018-06-01T07:24:43.138Z,11.05
2018-06-01T07:27:11.407Z,11.65
2018-06-01T07:29:39.575Z,11.77
2018-06-01T07:32:07.343Z,12.23
2018-06-01T07:34:35.196Z,10.98
2018-06-01T07:37:03.043Z,11.48
2018-06-01T07:39:30.954Z,11.95
2018-06-01T07:41:58.893Z,11.30
2018-06-01T07:44:26.549Z,10.60
2018-06-01T07:46:54.626Z,10.52
2018-06-01T07:49:22.391Z,10.60
2018-06-01T07:51:50.457Z,10.40
2018-06-01T07:54:18.737Z,10.07
2018-06-01T07:56:46.506Z,9.13
2018-06-01T07:59:14.664Z,9.85
2018-06-01T08:01:43.158Z,9.10
2018-06-01T08:04:11.021Z,9.10
2018-06-01T08:06:38.882Z,8.95
2018-06-01T08:09:06.754Z,9.10
2018-06-01T08:11:35.344Z,8.85
2018-06-01T08:14:03.406Z,8.75
2018-06-01T08:16:31.179Z,9.13
2018-06-01T08:18:59.139Z,8.43
2018-06-01T08:21:26.939Z,7.87
2018-06-01T08:23:55.058Z,8.48
2018-06-01T08:26:22.830Z,8.95
2018-06-01T08:28:50.705Z,8.07
2018-06-01T08:31:18.472Z,8.30
2018-06-01T08:33:46.740Z,7.60
2018-06-01T08:36:14.401Z,7.65
2018-06-01T08:38:42.457Z,7.25
2018-06-01T08:41:11.363Z,6.60
2018-06-01T08:43:39.234Z,6.22
2018-06-01T08:46:07.095Z,6.12
2018-06-01T08:48:34.853Z,5.78
2018-06-01T08:51:02.618Z,5.62
2018-06-01T08:53:30.682Z,5.68
2018-06-01T08:55:58.456Z,5.15
2018-06-01T08:58:26.632Z,5.07
2018-06-01T09:00:54.391Z,5.65
2018-06-01T09:03:22.570Z,5.20
2018-06-01T09:05:50.630Z,5.47
2018-06-01T09:08:18.394Z,5.68
2018-06-01T09:10:46.775Z,4.95
2018-06-01T09:13:14.551Z,5.93
2018-06-01T09:15:42.730Z,5.55
2018-06-01T09:18:10.579Z,5.62
2018-06-01T09:20:38.760Z,5.28
2018-06-01T09:23:06.706Z,5.37
2018-06-01T09:25:34.895Z,5.32
2018-06-01T09:28:02.549Z,5.70
2018-06-01T09:30:31.139Z,4.93
2018-06-01T09:32:58.902Z,5.30
2018-06-01T09:35:26.565Z,5.07
2018-06-01T09:37:54.739Z,5.25
2018-06-01T09:40:22.690Z,5.55
2018-06-01T09:42:50.356Z,5.70
2018-06-01T09:45:18.541Z,4.93
2018-06-01T09:47:46.718Z,5.20
2018-06-01T09:50:14.474Z,5.30
2018-06-01T09:52:42.530Z,5.62
2018-06-01T09:55:10.713Z,5.00
2018-06-01T09:57:38.894Z,5.22
2018-06-01T10:05:53.598Z,4.72
2018-06-01T10:08:21.447Z,4.78
2018-06-01T10:10:49.218Z,4.93
2018-06-01T10:13:16.874Z,4.97
2018-06-01T10:15:44.742Z,4.90
2018-06-01T10:18:12.941Z,4.55
2018-06-01T10:20:41.591Z,5.05
2018-06-01T10:23:09.466Z,5.15
2018-06-01T10:25:37.232Z,4.90
2018-06-01T10:28:05.190Z,5.20
2018-06-01T10:30:32.975Z,4.53
2018-06-01T10:33:00.899Z,4.90
2018-06-01T10:35:28.710Z,4.45
2018-06-01T10:37:56.563Z,5.20
2018-06-01T10:40:24.737Z,4.78
2018-06-01T10:42:52.500Z,4.78
2018-06-01T10:45:20.728Z,4.60
2018-06-01T10:47:49.353Z,4.30
2018-06-01T10:50:17.103Z,4.53
2018-06-01T10:52:44.885Z,4.75
2018-06-01T10:55:12.679Z,4.18
2018-06-01T10:57:40.515Z,4.40
2018-06-01T11:00:08.693Z,4.15
2018-06-01T11:02:36.330Z,4.50
2018-06-01T11:05:04.615Z,4.60
2018-06-01T11:07:32.394Z,4.53
2018-06-01T11:10:00.443Z,4.72
2018-06-01T11:12:28.628Z,4.65
2018-06-01T11:14:56.424Z,4.60
2018-06-01T11:17:24.606Z,4.35
2018-06-01T11:19:53.146Z,4.72
2018-06-01T11:22:21.023Z,4.32
2018-06-01T11:24:48.780Z,4.62
2018-06-01T11:27:16.560Z,4.05
2018-06-01T11:29:44.748Z,4.80
2018-06-01T11:32:12.923Z,5.30
2018-06-01T11:34:41.561Z,4.68
2018-06-01T11:37:09.443Z,5.00
2018-06-01T11:39:38.630Z,4.60
2018-06-01T11:42:06.434Z,4.40
2018-06-01T11:44:34.594Z,4.80
2018-06-01T11:47:02.757Z,4.72
2018-06-01T11:49:30.637Z,5.07
2018-06-01T11:51:58.805Z,4.87
2018-06-01T11:54:26.841Z,4.75
2018-06-01T11:56:55.049Z,4.50
2018-06-01T11:59:22.893Z,4.57
2018-06-01T12:01:50.771Z,4.60
2018-06-01T12:04:18.646Z,4.75
2018-06-01T12:06:46.785Z,4.40
2018-06-01T12:09:14.591Z,4.75
2018-06-01T12:11:42.857Z,4.10
2018-06-01T12:14:10.705Z,4.37
2018-06-01T12:16:38.872Z,4.45
2018-06-01T12:19:07.048Z,5.00
2018-06-01T12:21:34.833Z,4.62
2018-06-01T12:24:02.786Z,4.75
2018-06-01T12:26:30.751Z,3.83
2018-06-01T12:28:58.612Z,4.68
2018-06-01T12:31:26.788Z,4.22
2018-06-01T12:33:54.673Z,4.43
2018-06-01T12:36:22.521Z,4.25
2018-06-01T12:38:50.679Z,4.65
2018-06-01T12:41:18.455Z,4.35
2018-06-01T12:43:46.729Z,4.68
2018-06-01T12:46:14.529Z,4.15
2018-06-01T12:48:42.658Z,4.47
2018-06-01T12:51:10.537Z,5.53
2018-06-01T12:53:38.802Z,4.62
2018-06-01T12:56:06.575Z,4.50
2018-06-01T12:58:34.743Z,4.85
2018-06-01T13:01:02.519Z,4.60
2018-06-01T13:03:30.891Z,4.57
2018-06-01T13:05:58.745Z,4.50
2018-06-01T13:08:26.399Z,6.80
2018-06-01T13:10:55.317Z,6.57
2018-06-01T13:13:23.054Z,5.90
2018-06-01T13:15:50.921Z,5.03
2018-06-01T13:18:18.705Z,5.03
2018-06-01T13:20:46.891Z,4.90
2018-06-01T13:23:14.638Z,4.87
2018-06-01T13:25:43.509Z,4.82
2018-06-01T13:28:11.218Z,4.65
2018-06-01T13:30:40.414Z,4.93
2018-06-01T13:33:08.557Z,4.53
2018-06-01T13:35:36.926Z,4.53
2018-06-01T13:38:05.519Z,5.15
2018-06-01T13:40:33.276Z,5.15
2018-06-01T13:43:01.153Z,4.68
2018-06-01T13:45:29.007Z,4.62
2018-06-01T13:47:56.770Z,4.60
2018-06-01T13:50:24.963Z,4.65
2018-06-01T13:52:52.818Z,4.65
2018-06-01T13:55:20.459Z,4.50
2018-06-01T13:57:49.460Z,4.95
2018-06-01T14:00:17.233Z,4.50
2018-06-01T14:02:44.877Z,4.70
2018-06-01T14:05:12.655Z,4.60
2018-06-01T14:07:40.815Z,4.78
2018-06-01T14:10:08.600Z,5.20
2018-06-01T14:12:36.765Z,4.72
2018-06-01T14:15:04.627Z,4.70
2018-06-01T14:17:33.613Z,5.22
2018-06-01T14:20:01.389Z,4.53
2018-06-01T14:22:29.134Z,5.15
2018-06-01T14:24:56.915Z,4.85
2018-06-01T14:27:24.679Z,5.00
2018-06-01T14:29:52.740Z,4.93
2018-06-01T14:32:20.605Z,5.20
2018-06-01T14:34:48.795Z,4.87
2018-06-01T14:37:16.966Z,4.97
2018-06-01T14:39:44.730Z,5.37
2018-06-01T14:42:12.420Z,5.20
2018-06-01T14:44:40.660Z,5.12
2018-06-01T14:47:08.863Z,4.95
2018-06-01T14:49:36.637Z,4.80
2018-06-01T14:52:04.865Z,5.53
2018-06-01T14:54:32.742Z,5.05
2018-06-01T14:57:00.504Z,5.20
2018-06-01T14:59:28.672Z,5.37
2018-06-01T15:01:56.318Z,5.05
2018-06-01T15:04:25.031Z,5.12
2018-06-01T15:06:52.927Z,5.62
2018-06-01T15:09:21.663Z,4.97
2018-06-01T15:11:49.458Z,4.95
2018-06-01T15:14:17.193Z,4.72
2018-06-01T15:16:44.965Z,5.57
2018-06-01T15:19:12.947Z,5.55
2018-06-01T15:21:40.896Z,4.90
2018-06-01T15:24:08.650Z,4.82
2018-06-01T15:26:36.297Z,4.95
2018-06-01T15:29:04.799Z,4.87
2018-06-01T15:31:32.577Z,5.25
2018-06-01T15:34:00.788Z,4.82
2018-06-01T15:36:29.219Z,5.35
2018-06-01T15:38:56.862Z,4.70
2018-06-01T15:41:24.635Z,4.68
2018-06-01T15:43:52.817Z,4.53
2018-06-01T15:46:20.477Z,4.95
2018-06-01T15:48:48.653Z,4.65
2018-06-01T15:51:16.714Z,4.62
2018-06-01T15:53:44.375Z,4.43
2018-06-01T15:56:13.280Z,5.65
2018-06-01T15:58:41.051Z,4.80
2018-06-01T16:01:09.519Z,4.82
2018-06-01T16:03:37.278Z,5.12
2018-06-01T16:06:05.465Z,5.97
2018-06-01T16:08:33.223Z,5.95
2018-06-01T16:11:00.988Z,5.10
2018-06-01T16:13:28.664Z,4.28
2018-06-01T16:15:56.907Z,4.20
2018-06-01T16:18:24.782Z,4.70
2018-06-01T16:20:52.662Z,4.95
2018-06-01T16:23:20.841Z,4.32
2018-06-01T16:25:48.609Z,4.18
2018-06-01T16:28:16.753Z,3.60
2018-06-01T16:30:44.625Z,4.70
2018-06-01T16:33:12.807Z,3.10
2018-06-01T16:35:40.582Z,3.78
2018-06-01T16:38:08.938Z,3.25
2018-06-01T16:40:36.905Z,4.15
2018-06-01T16:43:04.686Z,4.10
2018-06-01T16:45:32.738Z,4.15
2018-06-01T16:48:00.922Z,3.92
2018-06-01T16:50:28.681Z,4.28
2018-06-01T16:52:56.883Z,5.10
2018-06-01T16:55:24.723Z,4.22
2018-06-01T16:57:52.583Z,4.15
2018-06-01T17:00:21.168Z,3.80
2018-06-01T17:02:48.922Z,3.95
2018-06-01T17:05:16.695Z,3.62
2018-06-01T17:07:44.962Z,3.80
2018-06-01T17:10:12.848Z,4.05
2018-06-01T17:12:40.710Z,4.10
2018-06-01T17:15:08.489Z,4.18
2018-06-01T17:17:36.646Z,4.87
2018-06-01T17:20:04.697Z,4.85
2018-06-01T17:22:32.504Z,5.50
2018-06-01T17:25:00.766Z,5.68
2018-06-01T17:27:29.886Z,6.43
2018-06-01T17:29:58.847Z,6.87
2018-06-01T17:32:26.699Z,5.80
2018-06-01T17:34:54.763Z,5.87
2018-06-01T17:37:22.628Z,5.32
2018-06-01T17:39:51.158Z,3.90
2018-06-01T17:42:19.595Z,4.60
2018-06-01T17:44:49.012Z,3.95
2018-06-01T17:47:17.904Z,4.15
2018-06-01T17:49:45.761Z,3.50
2018-06-01T17:52:13.533Z,4.30
2018-06-01T17:54:41.394Z,11.10
2018-06-01T17:57:09.262Z,5.97
2018-06-01T17:59:37.014Z,7.70
2018-06-01T18:02:04.792Z,8.52
2018-06-01T18:04:32.644Z,6.22
2018-06-01T18:07:00.818Z,5.32
2018-06-01T18:09:29.002Z,4.40
2018-06-01T18:11:56.634Z,3.78
2018-06-01T18:14:24.718Z,6.53
2018-06-01T18:16:52.507Z,3.80
2018-06-01T18:19:20.675Z,4.40
2018-06-01T18:21:48.835Z,5.15
2018-06-01T18:24:17.315Z,4.03
2018-06-01T18:26:44.967Z,5.03
2018-06-01T18:29:12.639Z,4.80
2018-06-01T18:31:40.830Z,4.70
2018-06-01T18:34:08.620Z,5.10
2018-06-01T18:36:36.952Z,5.43
2018-06-01T18:39:05.425Z,4.35
2018-06-01T18:41:33.234Z,4.75
2018-06-01T18:44:02.467Z,5.25
2018-06-01T18:46:30.765Z,4.97
2018-06-01T18:48:58.542Z,4.62
2018-06-01T18:51:26.727Z,4.55
2018-06-01T18:53:54.900Z,5.28
2018-06-01T18:56:22.973Z,4.65
2018-06-01T18:58:50.722Z,4.87
2018-06-01T19:01:18.881Z,4.43
2018-06-01T19:03:46.686Z,4.60
2018-06-01T19:06:14.952Z,5.00
2018-06-01T19:08:43.550Z,4.75
2018-06-01T19:11:12.931Z,6.30
2018-06-01T19:13:40.666Z,5.40
2018-06-01T19:16:08.973Z,5.50
2018-06-01T19:18:36.843Z,4.75
2018-06-01T19:21:04.782Z,4.93
2018-06-01T19:23:33.756Z,5.22
2018-06-01T19:26:01.636Z,4.85
2018-06-01T19:28:30.929Z,4.97
2018-06-01T19:30:58.705Z,5.20
2018-06-01T19:33:26.988Z,5.32
2018-06-01T19:35:54.852Z,4.93
2018-06-01T19:38:22.722Z,5.43
2018-06-01T19:40:50.910Z,5.25
2018-06-01T19:43:19.083Z,5.47
2018-06-01T19:45:47.651Z,5.50
2018-06-01T19:48:15.403Z,5.30
2018-06-01T19:50:43.175Z,5.50
2018-06-01T19:53:11.028Z,5.62
2018-06-01T19:55:39.212Z,5.70
2018-06-01T19:58:07.069Z,5.25
2018-06-01T20:00:34.959Z,6.75
2018-06-01T20:03:02.699Z,6.85
2018-06-01T20:05:30.860Z,6.80
2018-06-01T20:07:58.739Z,5.57
2018-06-01T20:10:26.912Z,5.60
2018-06-01T20:12:54.788Z,5.18
2018-06-01T20:15:22.557Z,5.15
2018-06-01T20:17:50.613Z,7.75
2018-06-01T20:20:18.679Z,6.12
2018-06-01T20:22:46.955Z,5.50
2018-06-01T20:25:14.713Z,5.22
2018-06-01T20:27:42.816Z,5.72
2018-06-01T20:30:10.757Z,6.70
2018-06-01T20:32:38.541Z,6.20
2018-06-01T20:35:06.706Z,7.03
2018-06-01T20:37:34.862Z,6.80
2018-06-01T20:40:02.527Z,6.78
2018-06-01T20:42:30.722Z,6.93
2018-06-01T20:44:58.987Z,6.43
2018-06-01T20:47:26.774Z,7.15
2018-06-01T20:49:55.155Z,7.20
2018-06-01T20:52:22.995Z,7.57
2018-06-01T20:54:50.744Z,8.20
2018-06-01T20:57:18.812Z,8.60
2018-06-01T20:59:46.698Z,8.35
2018-06-01T21:02:14.861Z,8.23
2018-06-01T21:04:42.727Z,6.30
2018-06-01T21:07:10.902Z,6.60
2018-06-01T21:09:39.057Z,6.78
2018-06-01T21:12:06.835Z,5.82
2018-06-01T21:14:34.603Z,6.25
2018-06-01T21:17:02.673Z,6.60
2018-06-01T21:19:30.730Z,7.97
2018-06-01T21:21:59.630Z,6.90
2018-06-01T21:24:27.287Z,7.00
2018-06-01T21:26:55.071Z,7.10
2018-06-01T21:29:24.268Z,7.28
2018-06-01T21:31:52.721Z,7.65
2018-06-01T21:34:20.921Z,7.20
2018-06-01T21:36:48.683Z,6.70
2018-06-01T21:39:16.842Z,7.05
2018-06-01T21:41:44.809Z,6.50
2018-06-01T21:44:12.577Z,6.30
2018-06-01T21:46:41.427Z,6.75
2018-06-01T21:49:09.249Z,7.25
2018-06-01T21:51:37.101Z,7.78
2018-06-01T21:54:04.867Z,7.55
2018-06-01T21:56:33.363Z,7.85
2018-06-01T21:59:01.214Z,7.20
2018-06-01T22:01:28.983Z,8.23
2018-06-01T22:03:58.069Z,7.82
2018-06-01T22:06:26.646Z,8.27
2018-06-01T22:08:54.818Z,8.30
2018-06-01T22:11:22.596Z,8.30
2018-06-01T22:13:50.759Z,8.75
2018-06-01T22:16:19.052Z,9.38
2018-06-01T22:18:46.801Z,9.38
2018-06-01T22:21:14.577Z,8.55
2018-06-01T22:23:42.744Z,8.57
2018-06-01T22:26:10.803Z,8.25
2018-06-01T22:28:38.567Z,8.38
2018-06-01T22:31:06.644Z,8.90
2018-06-01T22:33:34.697Z,9.57
2018-06-01T22:36:02.879Z,9.65
2018-06-01T22:38:30.752Z,9.20
2018-06-01T22:40:58.914Z,8.65
2018-06-01T22:43:26.780Z,10.18
2018-06-01T22:45:54.847Z,9.57
2018-06-01T22:48:22.710Z,10.23
2018-06-01T22:50:50.992Z,10.57
2018-06-01T22:53:18.747Z,10.85
2018-06-01T22:55:46.941Z,9.70
2018-06-01T22:58:14.758Z,9.80
2018-06-01T23:00:42.866Z,10.77
2018-06-01T23:03:10.733Z,10.80
2018-06-01T23:05:38.909Z,10.90
2018-06-01T23:08:06.554Z,10.93
2018-06-01T23:10:34.640Z,11.48
2018-06-01T23:13:02.810Z,10.85
2018-06-01T23:15:31.811Z,11.30
2018-06-01T23:17:59.572Z,11.18
2018-06-01T23:20:27.432Z,11.73
2018-06-01T23:22:55.190Z,11.98
2018-06-01T23:25:22.970Z,12.35
2018-06-01T23:27:50.850Z,11.93
2018-06-01T23:30:18.593Z,11.80
2018-06-01T23:32:46.779Z,12.13
2018-06-01T23:35:15.031Z,13.27
2018-06-01T23:37:42.689Z,13.20
2018-06-01T23:40:10.897Z,13.30
2018-06-01T23:42:38.633Z,13.95
2018-06-01T23:45:07.425Z,14.45
2018-06-01T23:47:35.182Z,13.30
2018-06-01T23:50:02.963Z,14.82
2018-06-01T23:52:32.066Z,15.27
2018-06-01T23:55:00.527Z,14.80
2018-06-01T23:57:28.714Z,14.43
2018-06-01T23:59:56.766Z,14.50
